sensor_id;sensor_type;location;lat;lon;timestamp;pressure;altitude;pressure_sealevel;temperature;humidity
50302;BME280;36550;50.472;19.744;2022-07-29T00:01:36;98435.63;;;12.17;66.69
50302;BME280;36550;50.472;19.744;2022-07-29T00:04:20;98437.94;;;12.13;66.67
50302;BME280;36550;50.472;19.744;2022-07-29T00:07:05;98445.91;;;12.04;66.52
50302;BME280;36550;50.472;19.744;2022-07-29T00:09:49;98435.66;;;11.91;66.40
50302;BME280;36550;50.472;19.744;2022-07-29T00:12:33;98437.58;;;11.84;66.56
50302;BME280;36550;50.472;19.744;2022-07-29T00:15:17;98443.25;;;11.78;66.69
50302;BME280;36550;50.472;19.744;2022-07-29T00:18:01;98440.89;;;11.79;67.01
50302;BME280;36550;50.472;19.744;2022-07-29T00:20:46;98441.41;;;11.79;67.14
50302;BME280;36550;50.472;19.744;2022-07-29T00:23:30;98445.47;;;11.84;67.42
50302;BME280;36550;50.472;19.744;2022-07-29T00:26:14;98442.23;;;11.91;67.70
50302;BME280;36550;50.472;19.744;2022-07-29T00:29:00;98446.09;;;12.00;67.98
50302;BME280;36550;50.472;19.744;2022-07-29T00:31:45;98441.84;;;12.11;68.24
50302;BME280;36550;50.472;19.744;2022-07-29T00:34:29;98450.44;;;12.21;68.15
50302;BME280;36550;50.472;19.744;2022-07-29T00:37:32;98447.58;;;12.22;67.85
50302;BME280;36550;50.472;19.744;2022-07-29T00:40:16;98453.70;;;12.25;67.76
50302;BME280;36550;50.472;19.744;2022-07-29T00:43:00;98455.61;;;12.30;67.79
50302;BME280;36550;50.472;19.744;2022-07-29T00:45:45;98449.47;;;12.39;67.87
50302;BME280;36550;50.472;19.744;2022-07-29T00:48:30;98449.60;;;12.46;67.84
50302;BME280;36550;50.472;19.744;2022-07-29T00:51:14;98448.66;;;12.52;67.81
50302;BME280;36550;50.472;19.744;2022-07-29T00:53:58;98444.80;;;12.58;67.86
50302;BME280;36550;50.472;19.744;2022-07-29T00:56:43;98445.66;;;12.61;67.92
50302;BME280;36550;50.472;19.744;2022-07-29T00:59:28;98439.39;;;12.64;67.95
50302;BME280;36550;50.472;19.744;2022-07-29T01:02:12;98436.33;;;12.70;67.97
50302;BME280;36550;50.472;19.744;2022-07-29T01:04:56;98434.81;;;12.74;67.96
50302;BME280;36550;50.472;19.744;2022-07-29T01:07:41;98428.84;;;12.79;67.91
50302;BME280;36550;50.472;19.744;2022-07-29T01:10:26;98428.88;;;12.81;67.82
50302;BME280;36550;50.472;19.744;2022-07-29T01:13:11;98431.60;;;12.86;67.92
50302;BME280;36550;50.472;19.744;2022-07-29T01:16:11;98427.42;;;12.88;67.74
50302;BME280;36550;50.472;19.744;2022-07-29T01:19:00;98427.42;;;12.88;67.73
50302;BME280;36550;50.472;19.744;2022-07-29T01:21:53;98431.08;;;12.87;67.88
50302;BME280;36550;50.472;19.744;2022-07-29T01:31:00;98432.59;;;13.00;68.19
50302;BME280;36550;50.472;19.744;2022-07-29T01:33:50;98433.21;;;13.04;68.08
50302;BME280;36550;50.472;19.744;2022-07-29T01:36:39;98427.70;;;13.06;68.02
50302;BME280;36550;50.472;19.744;2022-07-29T01:39:33;98435.88;;;13.07;67.92
50302;BME280;36550;50.472;19.744;2022-07-29T01:45:37;98431.75;;;12.97;67.88
50302;BME280;36550;50.472;19.744;2022-07-29T01:51:46;98431.52;;;12.81;67.89
50302;BME280;36550;50.472;19.744;2022-07-29T01:54:39;98434.70;;;12.83;68.15
50302;BME280;36550;50.472;19.744;2022-07-29T01:57:31;98426.36;;;12.89;68.32
50302;BME280;36550;50.472;19.744;2022-07-29T02:00:17;98421.97;;;12.95;68.46
50302;BME280;36550;50.472;19.744;2022-07-29T02:03:05;98416.00;;;12.99;68.54
50302;BME280;36550;50.472;19.744;2022-07-29T02:05:52;98411.26;;;12.99;68.49
50302;BME280;36550;50.472;19.744;2022-07-29T02:08:38;98399.64;;;12.97;68.41
50302;BME280;36550;50.472;19.744;2022-07-29T02:11:23;98401.72;;;12.95;68.41
50302;BME280;36550;50.472;19.744;2022-07-29T02:14:09;98401.40;;;12.92;68.39
50302;BME280;36550;50.472;19.744;2022-07-29T02:16:55;98397.89;;;12.86;68.31
50302;BME280;36550;50.472;19.744;2022-07-29T02:19:42;98397.27;;;12.81;68.26
50302;BME280;36550;50.472;19.744;2022-07-29T02:22:29;98406.48;;;12.81;68.25
50302;BME280;36550;50.472;19.744;2022-07-29T02:25:15;98405.09;;;12.76;68.32
50302;BME280;36550;50.472;19.744;2022-07-29T02:28:02;98404.30;;;12.76;68.45
50302;BME280;36550;50.472;19.744;2022-07-29T02:30:49;98397.68;;;12.73;68.55
50302;BME280;36550;50.472;19.744;2022-07-29T02:33:37;98394.98;;;12.70;68.62
50302;BME280;36550;50.472;19.744;2022-07-29T02:36:22;98393.87;;;12.66;68.65
50302;BME280;36550;50.472;19.744;2022-07-29T02:39:07;98392.23;;;12.63;68.63
50302;BME280;36550;50.472;19.744;2022-07-29T02:41:59;98385.36;;;12.62;68.65
50302;BME280;36550;50.472;19.744;2022-07-29T02:44:45;98391.94;;;12.62;68.70
50302;BME280;36550;50.472;19.744;2022-07-29T02:47:41;98392.77;;;12.62;68.90
50302;BME280;36550;50.472;19.744;2022-07-29T02:50:29;98391.21;;;12.64;68.97
50302;BME280;36550;50.472;19.744;2022-07-29T02:53:18;98390.91;;;12.63;68.93
50302;BME280;36550;50.472;19.744;2022-07-29T02:56:10;98391.91;;;12.59;68.84
50302;BME280;36550;50.472;19.744;2022-07-29T02:58:58;98390.14;;;12.48;68.37
50302;BME280;36550;50.472;19.744;2022-07-29T03:01:43;98393.90;;;12.38;68.41
50302;BME280;36550;50.472;19.744;2022-07-29T03:04:30;98393.25;;;12.30;68.52
50302;BME280;36550;50.472;19.744;2022-07-29T03:07:18;98390.58;;;12.28;68.59
50302;BME280;36550;50.472;19.744;2022-07-29T03:10:03;98380.81;;;12.26;68.77
50302;BME280;36550;50.472;19.744;2022-07-29T03:12:49;98384.56;;;12.30;69.00
50302;BME280;36550;50.472;19.744;2022-07-29T03:15:34;98389.92;;;12.35;69.20
50302;BME280;36550;50.472;19.744;2022-07-29T03:18:19;98387.61;;;12.39;69.28
50302;BME280;36550;50.472;19.744;2022-07-29T03:21:03;98384.23;;;12.41;69.34
50302;BME280;36550;50.472;19.744;2022-07-29T03:23:47;98386.20;;;12.48;69.48
50302;BME280;36550;50.472;19.744;2022-07-29T03:26:31;98383.66;;;12.53;69.51
50302;BME280;36550;50.472;19.744;2022-07-29T03:29:16;98386.64;;;12.59;69.54
50302;BME280;36550;50.472;19.744;2022-07-29T03:32:04;98385.74;;;12.68;69.57
50302;BME280;36550;50.472;19.744;2022-07-29T03:34:49;98393.53;;;12.77;69.62
50302;BME280;36550;50.472;19.744;2022-07-29T03:37:33;98388.08;;;12.84;69.53
50302;BME280;36550;50.472;19.744;2022-07-29T03:40:31;98388.98;;;12.89;69.42
50302;BME280;36550;50.472;19.744;2022-07-29T03:43:17;98389.05;;;12.95;69.27
50302;BME280;36550;50.472;19.744;2022-07-29T03:46:04;98386.28;;;13.04;69.17
50302;BME280;36550;50.472;19.744;2022-07-29T03:48:55;98384.60;;;13.15;69.14
50302;BME280;36550;50.472;19.744;2022-07-29T03:51:41;98390.27;;;13.23;69.01
50302;BME280;36550;50.472;19.744;2022-07-29T03:54:25;98401.31;;;13.37;68.89
50302;BME280;36550;50.472;19.744;2022-07-29T03:57:11;98407.57;;;13.53;68.73
50302;BME280;36550;50.472;19.744;2022-07-29T03:59:57;98396.18;;;13.70;68.83
50302;BME280;36550;50.472;19.744;2022-07-29T04:02:43;98394.05;;;13.89;68.90
50302;BME280;36550;50.472;19.744;2022-07-29T04:05:32;98393.36;;;13.98;68.88
50302;BME280;36550;50.472;19.744;2022-07-29T04:08:16;98397.22;;;14.13;68.79
50302;BME280;36550;50.472;19.744;2022-07-29T04:11:01;98402.39;;;14.27;68.82
50302;BME280;36550;50.472;19.744;2022-07-29T04:13:46;98405.66;;;14.39;68.90
50302;BME280;36550;50.472;19.744;2022-07-29T04:16:30;98403.44;;;14.56;68.83
50302;BME280;36550;50.472;19.744;2022-07-29T04:19:14;98402.12;;;14.80;68.55
50302;BME280;36550;50.472;19.744;2022-07-29T04:21:59;98401.19;;;14.97;68.52
50302;BME280;36550;50.472;19.744;2022-07-29T04:24:43;98404.55;;;15.22;68.22
50302;BME280;36550;50.472;19.744;2022-07-29T04:27:27;98404.55;;;15.22;68.22
50302;BME280;36550;50.472;19.744;2022-07-29T04:30:12;98406.73;;;15.35;68.03
50302;BME280;36550;50.472;19.744;2022-07-29T04:32:56;98403.88;;;15.45;67.67
50302;BME280;36550;50.472;19.744;2022-07-29T04:35:40;98402.59;;;15.50;67.33
50302;BME280;36550;50.472;19.744;2022-07-29T04:38:24;98398.09;;;15.50;66.92
50302;BME280;36550;50.472;19.744;2022-07-29T04:41:09;98398.88;;;15.51;66.91
50302;BME280;36550;50.472;19.744;2022-07-29T04:43:53;98398.13;;;15.55;66.82
50302;BME280;36550;50.472;19.744;2022-07-29T04:46:38;98397.17;;;15.74;66.82
50302;BME280;36550;50.472;19.744;2022-07-29T04:49:22;98394.12;;;16.13;66.31
50302;BME280;36550;50.472;19.744;2022-07-29T04:52:06;98387.57;;;16.52;66.50
50302;BME280;36550;50.472;19.744;2022-07-29T04:54:51;98387.57;;;16.52;66.50
50302;BME280;36550;50.472;19.744;2022-07-29T04:57:35;98395.56;;;17.11;66.15
50302;BME280;36550;50.472;19.744;2022-07-29T05:00:19;98382.94;;;17.70;65.48
50302;BME280;36550;50.472;19.744;2022-07-29T05:03:04;98378.97;;;18.25;64.78
50302;BME280;36550;50.472;19.744;2022-07-29T05:05:48;98379.97;;;18.74;63.95
50302;BME280;36550;50.472;19.744;2022-07-29T05:08:32;98375.63;;;19.15;62.89
50302;BME280;36550;50.472;19.744;2022-07-29T05:11:16;98369.34;;;19.57;62.22
50302;BME280;36550;50.472;19.744;2022-07-29T05:14:00;98373.23;;;19.89;61.45
50302;BME280;36550;50.472;19.744;2022-07-29T05:16:44;98371.66;;;20.26;60.13
50302;BME280;36550;50.472;19.744;2022-07-29T05:19:29;98372.79;;;20.41;59.12
50302;BME280;36550;50.472;19.744;2022-07-29T05:22:13;98374.62;;;20.43;59.20
50302;BME280;36550;50.472;19.744;2022-07-29T05:24:57;98363.91;;;20.46;58.48
50302;BME280;36550;50.472;19.744;2022-07-29T05:27:41;98365.86;;;20.40;58.22
50302;BME280;36550;50.472;19.744;2022-07-29T05:30:26;98370.46;;;20.37;57.88
50302;BME280;36550;50.472;19.744;2022-07-29T05:33:10;98368.91;;;20.33;57.33
50302;BME280;36550;50.472;19.744;2022-07-29T05:35:54;98365.44;;;20.33;57.04
50302;BME280;36550;50.472;19.744;2022-07-29T05:38:38;98372.79;;;20.41;56.47
50302;BME280;36550;50.472;19.744;2022-07-29T05:41:23;98365.64;;;20.55;56.77
50302;BME280;36550;50.472;19.744;2022-07-29T05:44:07;98368.06;;;20.73;55.77
50302;BME280;36550;50.472;19.744;2022-07-29T05:46:51;98362.11;;;20.93;54.59
50302;BME280;36550;50.472;19.744;2022-07-29T05:49:36;98364.38;;;21.16;54.70
50302;BME280;36550;50.472;19.744;2022-07-29T05:52:20;98358.92;;;21.38;53.85
50302;BME280;36550;50.472;19.744;2022-07-29T05:55:05;98362.55;;;21.58;53.44
50302;BME280;36550;50.472;19.744;2022-07-29T05:57:51;98350.80;;;21.70;52.35
50302;BME280;36550;50.472;19.744;2022-07-29T06:00:36;98364.21;;;21.82;49.86
50302;BME280;36550;50.472;19.744;2022-07-29T06:03:20;98363.00;;;21.88;50.77
50302;BME280;36550;50.472;19.744;2022-07-29T06:06:04;98358.53;;;21.97;49.55
50302;BME280;36550;50.472;19.744;2022-07-29T06:08:49;98359.66;;;22.07;49.02
50302;BME280;36550;50.472;19.744;2022-07-29T06:11:33;98359.37;;;22.20;49.38
50302;BME280;36550;50.472;19.744;2022-07-29T06:14:17;98357.33;;;22.28;48.14
50302;BME280;36550;50.472;19.744;2022-07-29T06:17:02;98369.44;;;22.37;46.44
50302;BME280;36550;50.472;19.744;2022-07-29T06:19:46;98365.05;;;22.41;44.60
50302;BME280;36550;50.472;19.744;2022-07-29T06:22:30;98361.48;;;22.46;46.30
50302;BME280;36550;50.472;19.744;2022-07-29T06:25:14;98365.90;;;22.62;46.83
50302;BME280;36550;50.472;19.744;2022-07-29T06:27:58;98368.59;;;22.73;46.50
50302;BME280;36550;50.472;19.744;2022-07-29T06:30:42;98366.76;;;22.82;45.74
50302;BME280;36550;50.472;19.744;2022-07-29T06:33:26;98368.45;;;22.90;45.58
50302;BME280;36550;50.472;19.744;2022-07-29T06:36:10;98367.14;;;22.98;45.02
50302;BME280;36550;50.472;19.744;2022-07-29T06:38:55;98378.97;;;23.09;44.07
50302;BME280;36550;50.472;19.744;2022-07-29T06:41:39;98370.98;;;23.17;43.97
50302;BME280;36550;50.472;19.744;2022-07-29T06:44:23;98372.77;;;23.31;44.41
50302;BME280;36550;50.472;19.744;2022-07-29T06:47:08;98371.13;;;23.32;43.89
50302;BME280;36550;50.472;19.744;2022-07-29T06:49:52;98375.95;;;23.41;43.90
50302;BME280;36550;50.472;19.744;2022-07-29T06:52:36;98377.94;;;23.47;43.44
50302;BME280;36550;50.472;19.744;2022-07-29T06:55:20;98373.70;;;23.55;43.18
50302;BME280;36550;50.472;19.744;2022-07-29T06:58:05;98363.33;;;23.62;43.45
50302;BME280;36550;50.472;19.744;2022-07-29T07:00:50;98365.92;;;23.64;43.40
50302;BME280;36550;50.472;19.744;2022-07-29T07:03:35;98361.07;;;23.67;42.87
50302;BME280;36550;50.472;19.744;2022-07-29T07:06:19;98365.87;;;23.67;42.72
50302;BME280;36550;50.472;19.744;2022-07-29T07:09:04;98360.90;;;23.63;42.10
50302;BME280;36550;50.472;19.744;2022-07-29T07:11:48;98361.52;;;23.60;42.13
50302;BME280;36550;50.472;19.744;2022-07-29T07:14:32;98366.56;;;23.61;42.66
50302;BME280;36550;50.472;19.744;2022-07-29T07:17:16;98363.89;;;23.61;43.18
50302;BME280;36550;50.472;19.744;2022-07-29T07:20:00;98361.38;;;23.65;43.07
50302;BME280;36550;50.472;19.744;2022-07-29T07:22:45;98363.41;;;23.68;43.13
50302;BME280;36550;50.472;19.744;2022-07-29T07:25:29;98360.73;;;23.68;42.41
50302;BME280;36550;50.472;19.744;2022-07-29T07:28:13;98362.46;;;23.64;42.29
50302;BME280;36550;50.472;19.744;2022-07-29T07:30:57;98350.66;;;23.65;42.19
50302;BME280;36550;50.472;19.744;2022-07-29T07:33:42;98356.02;;;23.74;42.35
50302;BME280;36550;50.472;19.744;2022-07-29T07:36:26;98347.83;;;23.79;42.40
50302;BME280;36550;50.472;19.744;2022-07-29T07:39:10;98351.90;;;23.88;42.60
50302;BME280;36550;50.472;19.744;2022-07-29T07:41:54;98347.95;;;23.94;42.59
50302;BME280;36550;50.472;19.744;2022-07-29T07:44:39;98344.66;;;23.97;42.29
50302;BME280;36550;50.472;19.744;2022-07-29T07:47:23;98343.39;;;24.03;42.51
50302;BME280;36550;50.472;19.744;2022-07-29T07:50:10;98341.75;;;24.13;42.74
50302;BME280;36550;50.472;19.744;2022-07-29T07:52:55;98346.80;;;24.15;41.44
50302;BME280;36550;50.472;19.744;2022-07-29T07:55:42;98350.89;;;24.21;42.52
50302;BME280;36550;50.472;19.744;2022-07-29T07:58:26;98354.77;;;24.26;42.32
50302;BME280;36550;50.472;19.744;2022-07-29T08:01:11;98354.77;;;24.35;42.83
50302;BME280;36550;50.472;19.744;2022-07-29T08:03:55;98357.05;;;24.48;41.81
50302;BME280;36550;50.472;19.744;2022-07-29T08:06:39;98358.47;;;24.54;42.64
50302;BME280;36550;50.472;19.744;2022-07-29T08:09:24;98360.91;;;24.62;42.28
50302;BME280;36550;50.472;19.744;2022-07-29T08:12:09;98347.33;;;24.67;42.37
50302;BME280;36550;50.472;19.744;2022-07-29T08:14:54;98352.52;;;24.81;41.96
50302;BME280;36550;50.472;19.744;2022-07-29T08:17:38;98340.00;;;24.93;41.48
50302;BME280;36550;50.472;19.744;2022-07-29T08:20:22;98350.67;;;25.11;41.92
50302;BME280;36550;50.472;19.744;2022-07-29T08:23:07;98344.03;;;25.17;41.75
50302;BME280;36550;50.472;19.744;2022-07-29T08:25:54;98346.76;;;25.23;41.26
50302;BME280;36550;50.472;19.744;2022-07-29T08:28:43;98338.63;;;25.26;40.83
50302;BME280;36550;50.472;19.744;2022-07-29T08:31:29;98343.75;;;25.33;40.44
50302;BME280;36550;50.472;19.744;2022-07-29T08:34:13;98340.08;;;25.38;40.82
50302;BME280;36550;50.472;19.744;2022-07-29T08:36:58;98347.50;;;25.56;41.11
50302;BME280;36550;50.472;19.744;2022-07-29T08:39:42;98339.45;;;25.77;40.74
50302;BME280;36550;50.472;19.744;2022-07-29T08:42:26;98346.69;;;25.85;39.55
50302;BME280;36550;50.472;19.744;2022-07-29T08:45:11;98344.56;;;25.85;39.69
50302;BME280;36550;50.472;19.744;2022-07-29T08:47:56;98343.97;;;25.79;40.03
50302;BME280;36550;50.472;19.744;2022-07-29T08:50:41;98338.45;;;25.76;40.24
50302;BME280;36550;50.472;19.744;2022-07-29T08:53:27;98327.64;;;25.69;40.55
50302;BME280;36550;50.472;19.744;2022-07-29T08:56:13;98338.32;;;25.72;40.80
50302;BME280;36550;50.472;19.744;2022-07-29T08:58:58;98335.22;;;25.61;40.64
50302;BME280;36550;50.472;19.744;2022-07-29T09:01:46;98339.33;;;25.59;40.81
50302;BME280;36550;50.472;19.744;2022-07-29T09:04:34;98337.67;;;25.45;39.68
50302;BME280;36550;50.472;19.744;2022-07-29T09:07:19;98336.94;;;25.36;40.64
50302;BME280;36550;50.472;19.744;2022-07-29T09:10:04;98336.58;;;25.31;40.60
50302;BME280;36550;50.472;19.744;2022-07-29T09:12:52;98340.92;;;25.30;41.35
50302;BME280;36550;50.472;19.744;2022-07-29T09:15:38;98331.52;;;25.21;39.82
50302;BME280;36550;50.472;19.744;2022-07-29T09:18:40;98323.28;;;25.11;41.17
50302;BME280;36550;50.472;19.744;2022-07-29T09:21:27;98326.18;;;25.12;41.23
50302;BME280;36550;50.472;19.744;2022-07-29T09:24:42;98319.92;;;25.14;41.05
50302;BME280;36550;50.472;19.744;2022-07-29T09:27:30;98323.08;;;25.16;41.62
50302;BME280;36550;50.472;19.744;2022-07-29T09:30:15;98317.95;;;25.17;41.42
50302;BME280;36550;50.472;19.744;2022-07-29T09:33:01;98309.08;;;25.26;41.63
50302;BME280;36550;50.472;19.744;2022-07-29T09:36:04;98308.72;;;25.36;41.75
50302;BME280;36550;50.472;19.744;2022-07-29T09:39:00;98312.61;;;25.32;40.98
50302;BME280;36550;50.472;19.744;2022-07-29T09:41:52;98315.29;;;25.47;41.66
50302;BME280;36550;50.472;19.744;2022-07-29T09:44:45;98311.35;;;25.60;41.19
50302;BME280;36550;50.472;19.744;2022-07-29T09:47:43;98311.20;;;25.71;40.77
50302;BME280;36550;50.472;19.744;2022-07-29T09:50:40;98312.22;;;25.72;40.67
50302;BME280;36550;50.472;19.744;2022-07-29T09:53:32;98309.55;;;25.79;40.86
50302;BME280;36550;50.472;19.744;2022-07-29T09:56:17;98296.81;;;25.82;40.73
50302;BME280;36550;50.472;19.744;2022-07-29T09:59:08;98306.70;;;25.90;41.21
50302;BME280;36550;50.472;19.744;2022-07-29T10:01:55;98301.73;;;25.80;40.32
50302;BME280;36550;50.472;19.744;2022-07-29T10:04:41;98303.64;;;25.79;40.86
50302;BME280;36550;50.472;19.744;2022-07-29T10:08:13;98308.13;;;25.81;40.79
50302;BME280;36550;50.472;19.744;2022-07-29T10:10:33;98303.06;;;25.95;41.26
50302;BME280;36550;50.472;19.744;2022-07-29T10:13:18;98303.89;;;26.01;41.11
50302;BME280;36550;50.472;19.744;2022-07-29T10:16:02;98299.88;;;26.07;40.93
50302;BME280;36550;50.472;19.744;2022-07-29T10:18:47;98302.24;;;26.09;40.85
50302;BME280;36550;50.472;19.744;2022-07-29T10:21:31;98302.06;;;26.20;40.64
50302;BME280;36550;50.472;19.744;2022-07-29T10:24:16;98285.93;;;26.26;40.71
50302;BME280;36550;50.472;19.744;2022-07-29T10:27:01;98292.45;;;26.31;40.60
50302;BME280;36550;50.472;19.744;2022-07-29T10:29:46;98297.50;;;26.27;40.60
50302;BME280;36550;50.472;19.744;2022-07-29T10:36:02;98281.64;;;26.19;40.77
50302;BME280;36550;50.472;19.744;2022-07-29T10:42:11;98275.36;;;26.15;40.85
50302;BME280;36550;50.472;19.744;2022-07-29T10:44:56;98265.95;;;26.15;41.28
50302;BME280;36550;50.472;19.744;2022-07-29T10:47:41;98275.28;;;26.24;41.27
50302;BME280;36550;50.472;19.744;2022-07-29T10:50:25;98277.90;;;26.33;40.80
50302;BME280;36550;50.472;19.744;2022-07-29T10:53:09;98269.27;;;26.39;40.56
50302;BME280;36550;50.472;19.744;2022-07-29T10:55:54;98271.78;;;26.50;40.39
50302;BME280;36550;50.472;19.744;2022-07-29T10:58:38;98279.23;;;26.66;40.24
50302;BME280;36550;50.472;19.744;2022-07-29T11:01:29;98273.55;;;26.80;40.19
50302;BME280;36550;50.472;19.744;2022-07-29T11:04:15;98278.59;;;26.87;39.72
50302;BME280;36550;50.472;19.744;2022-07-29T11:07:07;98274.42;;;26.96;39.39
50302;BME280;36550;50.472;19.744;2022-07-29T11:13:02;98272.06;;;27.25;39.73
50302;BME280;36550;50.472;19.744;2022-07-29T11:15:55;98268.73;;;27.35;39.83
50302;BME280;36550;50.472;19.744;2022-07-29T11:22:01;98260.38;;;27.52;39.89
50302;BME280;36550;50.472;19.744;2022-07-29T11:24:46;98258.70;;;27.54;39.16
50302;BME280;36550;50.472;19.744;2022-07-29T11:27:35;98258.70;;;27.54;39.16
50302;BME280;36550;50.472;19.744;2022-07-29T11:30:22;98256.47;;;27.50;38.65
50302;BME280;36550;50.472;19.744;2022-07-29T11:33:26;98261.38;;;27.60;38.83
50302;BME280;36550;50.472;19.744;2022-07-29T11:36:16;98252.69;;;27.73;39.11
50302;BME280;36550;50.472;19.744;2022-07-29T11:39:26;98251.59;;;28.02;38.90
50302;BME280;36550;50.472;19.744;2022-07-29T11:45:18;98248.75;;;28.33;38.69
50302;BME280;36550;50.472;19.744;2022-07-29T11:48:04;98250.05;;;28.39;38.52
50302;BME280;36550;50.472;19.744;2022-07-29T11:50:49;98245.05;;;28.31;38.19
50302;BME280;36550;50.472;19.744;2022-07-29T11:53:35;98243.50;;;28.02;37.36
50302;BME280;36550;50.472;19.744;2022-07-29T11:56:21;98242.09;;;27.86;38.36
50302;BME280;36550;50.472;19.744;2022-07-29T11:59:06;98244.90;;;27.83;38.78
50302;BME280;36550;50.472;19.744;2022-07-29T12:01:57;98236.12;;;27.87;38.83
50302;BME280;36550;50.472;19.744;2022-07-29T12:04:50;98233.53;;;27.96;38.79
50302;BME280;36550;50.472;19.744;2022-07-29T12:07:35;98223.69;;;28.10;38.58
50302;BME280;36550;50.472;19.744;2022-07-29T12:10:20;98223.59;;;28.29;38.34
50302;BME280;36550;50.472;19.744;2022-07-29T12:13:04;98223.95;;;28.43;37.85
50302;BME280;36550;50.472;19.744;2022-07-29T12:15:57;98217.48;;;28.70;38.12
50302;BME280;36550;50.472;19.744;2022-07-29T12:18:42;98216.80;;;28.98;38.14
50302;BME280;36550;50.472;19.744;2022-07-29T12:21:26;98213.27;;;29.20;37.44
50302;BME280;36550;50.472;19.744;2022-07-29T12:24:10;98224.16;;;29.33;36.66
50302;BME280;36550;50.472;19.744;2022-07-29T12:26:56;98210.80;;;29.50;37.33
50302;BME280;36550;50.472;19.744;2022-07-29T12:29:41;98210.23;;;29.61;36.69
50302;BME280;36550;50.472;19.744;2022-07-29T12:32:34;98217.86;;;29.55;36.09
50302;BME280;36550;50.472;19.744;2022-07-29T12:35:20;98217.28;;;29.46;36.22
50302;BME280;36550;50.472;19.744;2022-07-29T12:38:05;98221.81;;;29.42;36.07
50302;BME280;36550;50.472;19.744;2022-07-29T12:40:49;98224.16;;;29.33;35.99
50302;BME280;36550;50.472;19.744;2022-07-29T12:43:35;98218.13;;;29.40;36.61
50302;BME280;36550;50.472;19.744;2022-07-29T12:46:19;98216.16;;;29.56;36.52
50302;BME280;36550;50.472;19.744;2022-07-29T12:49:04;98211.75;;;29.78;36.52
50302;BME280;36550;50.472;19.744;2022-07-29T12:51:48;98214.29;;;30.00;36.33
50302;BME280;36550;50.472;19.744;2022-07-29T12:54:32;98207.08;;;30.17;36.10
50302;BME280;36550;50.472;19.744;2022-07-29T12:57:16;98208.97;;;30.36;35.46
50302;BME280;36550;50.472;19.744;2022-07-29T13:00:06;98212.80;;;30.45;35.41
50302;BME280;36550;50.472;19.744;2022-07-29T13:02:56;98217.17;;;30.53;34.49
50302;BME280;36550;50.472;19.744;2022-07-29T13:05:45;98214.83;;;30.51;34.63
50302;BME280;36550;50.472;19.744;2022-07-29T13:08:29;98200.20;;;30.56;34.87
50302;BME280;36550;50.472;19.744;2022-07-29T13:11:37;98203.81;;;30.64;34.75
50302;BME280;36550;50.472;19.744;2022-07-29T13:14:36;98204.33;;;30.60;35.00
50302;BME280;36550;50.472;19.744;2022-07-29T13:17:22;98198.56;;;30.38;34.77
50302;BME280;36550;50.472;19.744;2022-07-29T13:20:10;98196.38;;;30.14;35.09
50302;BME280;36550;50.472;19.744;2022-07-29T13:22:58;98196.08;;;29.87;35.17
50302;BME280;36550;50.472;19.744;2022-07-29T13:25:43;98197.05;;;29.69;35.58
50302;BME280;36550;50.472;19.744;2022-07-29T13:28:27;98196.77;;;29.54;36.03
50302;BME280;36550;50.472;19.744;2022-07-29T13:31:12;98193.38;;;29.48;35.22
50302;BME280;36550;50.472;19.744;2022-07-29T13:33:56;98187.39;;;29.39;36.32
50302;BME280;36550;50.472;19.744;2022-07-29T13:36:40;98192.19;;;29.20;36.63
50302;BME280;36550;50.472;19.744;2022-07-29T13:39:24;98181.01;;;28.86;36.38
50302;BME280;36550;50.472;19.744;2022-07-29T13:42:09;98181.78;;;28.86;36.90
50302;BME280;36550;50.472;19.744;2022-07-29T13:44:54;98180.34;;;28.83;37.05
50302;BME280;36550;50.472;19.744;2022-07-29T13:47:38;98166.74;;;28.69;36.92
50302;BME280;36550;50.472;19.744;2022-07-29T13:50:23;98170.71;;;28.66;37.19
50302;BME280;36550;50.472;19.744;2022-07-29T13:53:07;98171.31;;;28.59;37.29
50302;BME280;36550;50.472;19.744;2022-07-29T13:55:51;98164.16;;;28.51;37.42
50302;BME280;36550;50.472;19.744;2022-07-29T13:58:35;98161.86;;;28.43;37.59
50302;BME280;36550;50.472;19.744;2022-07-29T14:01:20;98156.81;;;28.41;37.70
50302;BME280;36550;50.472;19.744;2022-07-29T14:04:04;98162.41;;;28.42;37.62
50302;BME280;36550;50.472;19.744;2022-07-29T14:06:48;98160.43;;;28.39;37.88
50302;BME280;36550;50.472;19.744;2022-07-29T14:09:33;98152.67;;;28.38;38.11
50302;BME280;36550;50.472;19.744;2022-07-29T14:12:18;98153.97;;;28.44;37.35
50302;BME280;36550;50.472;19.744;2022-07-29T14:15:04;98153.13;;;28.56;37.36
50302;BME280;36550;50.472;19.744;2022-07-29T14:17:49;98153.02;;;28.52;38.11
50302;BME280;36550;50.472;19.744;2022-07-29T14:20:33;98142.80;;;28.36;37.72
50302;BME280;36550;50.472;19.744;2022-07-29T14:23:18;98153.29;;;28.15;38.33
50302;BME280;36550;50.472;19.744;2022-07-29T14:26:02;98148.48;;;27.80;38.05
50302;BME280;36550;50.472;19.744;2022-07-29T14:28:46;98147.93;;;27.59;38.82
50302;BME280;36550;50.472;19.744;2022-07-29T14:31:31;98135.17;;;27.50;38.94
50302;BME280;36550;50.472;19.744;2022-07-29T14:34:15;98137.93;;;27.31;38.84
50302;BME280;36550;50.472;19.744;2022-07-29T14:36:59;98133.00;;;27.15;39.61
50302;BME280;36550;50.472;19.744;2022-07-29T14:39:43;98138.19;;;27.07;39.91
50302;BME280;36550;50.472;19.744;2022-07-29T14:42:28;98139.06;;;27.12;39.96
50302;BME280;36550;50.472;19.744;2022-07-29T14:45:12;98134.25;;;27.11;39.49
50302;BME280;36550;50.472;19.744;2022-07-29T14:47:56;98129.52;;;27.26;39.66
50302;BME280;36550;50.472;19.744;2022-07-29T14:50:41;98123.95;;;27.48;39.78
50302;BME280;36550;50.472;19.744;2022-07-29T14:53:25;98125.20;;;27.66;39.26
50302;BME280;36550;50.472;19.744;2022-07-29T14:56:09;98115.77;;;27.66;38.71
50302;BME280;36550;50.472;19.744;2022-07-29T14:58:54;98113.31;;;27.83;39.12